Shermans Corner, ME

7:00 PM EST on February 25, 2017 (GMT -0500)
| | Change Station
Active Advisory: Dense Fog Advisory

Elev -9999 ft 0.00 °N, 0.00 °E | Updated 0 second ago

Overcast
Overcast
°F
Feels Like °F
N
Wind Variable Wind from North
Gusts mph

Today
High -- | Low -- °F
--% Chance of Precip.
Yesterday
High -- | Low -- °F
Precip. -- in
Pressure 29.64 in
Visibility 0.2 miles
Clouds Overcast 200 ft
Dew Point Not available.
Humidity Not available.
Rainfall --
Snow Depth Not available.
6:20 AM 5:20 PM
Waning Crescent, 0% visible
METAR KWVL 252356Z AUTO VRB06KT 1/4SM -RA FG OVC002 09/09 A2953 RMK AO2 RAB54 SLP036 P0000 60000 T00940094 10094 20044 56041
Pressure 29.64 in
Visibility 0.2 miles
Clouds Overcast 200 ft
Dew Point Not available.
Humidity Not available.
Rainfall --
Snow Depth Not available.
6:20 AM 5:20 PM
Waning Crescent, 0% visible
METAR KWVL 252356Z AUTO VRB06KT 1/4SM -RA FG OVC002 09/09 A2953 RMK AO2 RAB54 SLP036 P0000 60000 T00940094 10094 20044 56041

Get Your Daily Forecast Email!

Thanks for signing up!

Be on the lookout for a verification email in your inbox.

You'll start receiving the daily forecast at 8 AM.

×

10-Day Weather Forecast

Almanac

Astronomy

Feb. 25, 2017 Rise Set
Actual Time
Civil Twilight
Nautical Twilight
Astronomical Twilight
Moon
Length of Visible Light
Length of Day
Tomorrow will be .
, % of the Moon is Illuminated

Today's Extremes

State Highs State Lows

Community

WunderPhotos

Upload Photos

1,962,540 photos uploaded!

WunderBlog® & News

Nearby

Air Quality

  Air Quality AQ Index Pollutant
Not available.

Snow Depth

Station Depth Elevation

Earthquake Activity

City Distance Mag. Time & Date
Minimum magnitude displayed is 2.5.

Coastal Water Temperatures

Place Temperature

Stations

Nearby Weather Stations

Station Location Temp. Windchill Dew Point Humidity Wind Precip. Elev Updated Type
                   

Watches & Warnings

Dense Fog Advisory
Issued: 6:08 PM EST Feb. 25, 2017 – National Weather Service

... Dense fog advisory in effect until 1 am EST Sunday...

The National Weather Service in gray has issued a dense fog
advisory... which is in effect until 1 am EST Sunday.

* Visibilities... one quarter mile or less at times.

* Timing... through about midnight.

* Impacts... a dense fog advisory means visibilities will
frequently be reduced to less than one quarter mile. If
driving... slow down... use your low beam headlights... and leave
plenty of distance ahead of you.

Precautionary/preparedness actions...

A dense fog advisory means visibilities will frequently be
reduced to less than one quarter mile.